sensor_id;sensor_type;location;lat;lon;timestamp;pressure;altitude;pressure_sealevel;temperature;humidity
61026;BME280;46911;32.650;-16.902;2023-02-16T00:01:49;101988.59;;;13.28;59.90
61026;BME280;46911;32.650;-16.902;2023-02-16T00:03:52;101957.59;;;13.23;59.32
61026;BME280;46911;32.650;-16.902;2023-02-16T00:05:53;101970.78;;;13.27;59.89
61026;BME280;46911;32.650;-16.902;2023-02-16T00:07:55;101996.03;;;13.38;59.95
61026;BME280;46911;32.650;-16.902;2023-02-16T00:09:59;101986.38;;;13.36;60.29
61026;BME280;46911;32.650;-16.902;2023-02-16T00:12:15;101973.03;;;13.34;59.41
61026;BME280;46911;32.650;-16.902;2023-02-16T00:14:37;101956.63;;;13.25;60.04
61026;BME280;46911;32.650;-16.902;2023-02-16T00:16:41;101952.31;;;13.22;60.45
61026;BME280;46911;32.650;-16.902;2023-02-16T00:18:45;101989.19;;;13.33;60.64
61026;BME280;46911;32.650;-16.902;2023-02-16T00:20:48;101971.69;;;13.27;60.87
61026;BME280;46911;32.650;-16.902;2023-02-16T00:22:52;101949.41;;;13.11;61.88
61026;BME280;46911;32.650;-16.902;2023-02-16T00:24:55;101989.19;;;13.33;60.80
61026;BME280;46911;32.650;-16.902;2023-02-16T00:26:57;101942.56;;;13.21;60.70
61026;BME280;46911;32.650;-16.902;2023-02-16T00:28:59;101971.16;;;13.36;60.32
61026;BME280;46911;32.650;-16.902;2023-02-16T00:31:05;101951.47;;;13.52;60.31
61026;BME280;46911;32.650;-16.902;2023-02-16T00:33:13;101972.91;;;13.52;61.10
61026;BME280;46911;32.650;-16.902;2023-02-16T00:35:17;101960.38;;;13.52;59.19
61026;BME280;46911;32.650;-16.902;2023-02-16T00:37:20;101985.09;;;13.58;59.72
61026;BME280;46911;32.650;-16.902;2023-02-16T00:39:23;101940.09;;;13.48;58.72
61026;BME280;46911;32.650;-16.902;2023-02-16T00:41:28;101984.91;;;13.61;58.36
61026;BME280;46911;32.650;-16.902;2023-02-16T00:43:47;101977.91;;;13.58;57.92
61026;BME280;46911;32.650;-16.902;2023-02-16T00:45:48;101965.84;;;13.65;58.98
61026;BME280;46911;32.650;-16.902;2023-02-16T00:47:50;101984.03;;;13.60;59.51
61026;BME280;46911;32.650;-16.902;2023-02-16T00:49:54;101975.78;;;13.49;59.96
61026;BME280;46911;32.650;-16.902;2023-02-16T00:51:58;101969.94;;;13.42;60.64
61026;BME280;46911;32.650;-16.902;2023-02-16T00:53:59;101980.56;;;13.44;60.23
61026;BME280;46911;32.650;-16.902;2023-02-16T00:56:02;101984.50;;;13.52;59.66
61026;BME280;46911;32.650;-16.902;2023-02-16T01:00:23;101929.84;;;12.94;60.04
61026;BME280;46911;32.650;-16.902;2023-02-16T01:02:26;102001.56;;;13.35;59.43
61026;BME280;46911;32.650;-16.902;2023-02-16T01:04:27;101970.63;;;13.30;58.87
61026;BME280;46911;32.650;-16.902;2023-02-16T01:06:33;101975.78;;;13.49;59.09
61026;BME280;46911;32.650;-16.902;2023-02-16T01:08:56;101985.66;;;13.48;59.78
61026;BME280;46911;32.650;-16.902;2023-02-16T01:11:18;101963.16;;;13.51;58.22
61026;BME280;46911;32.650;-16.902;2023-02-16T01:13:19;101976.47;;;13.67;56.41
61026;BME280;46911;32.650;-16.902;2023-02-16T01:15:26;101950.06;;;13.61;56.63
61026;BME280;46911;32.650;-16.902;2023-02-16T01:17:29;101979.94;;;13.69;57.58
61026;BME280;46911;32.650;-16.902;2023-02-16T01:19:30;101946.59;;;13.59;58.35
61026;BME280;46911;32.650;-16.902;2023-02-16T01:21:33;101941.78;;;13.49;58.82
61026;BME280;46911;32.650;-16.902;2023-02-16T01:23:37;101959.63;;;13.65;58.79
61026;BME280;46911;32.650;-16.902;2023-02-16T01:25:41;101936.75;;;13.59;58.76
61026;BME280;46911;32.650;-16.902;2023-02-16T01:27:43;101983.28;;;13.58;60.11
61026;BME280;46911;32.650;-16.902;2023-02-16T01:29:49;101955.19;;;13.49;60.71
61026;BME280;46911;32.650;-16.902;2023-02-16T01:31:52;101964.50;;;13.58;59.95
61026;BME280;46911;32.650;-16.902;2023-02-16T01:33:53;101970.84;;;13.71;60.35
61026;BME280;46911;32.650;-16.902;2023-02-16T01:35:55;101982.16;;;13.91;60.01
61026;BME280;46911;32.650;-16.902;2023-02-16T01:37:58;101976.97;;;13.88;60.06
61026;BME280;46911;32.650;-16.902;2023-02-16T01:39:58;101972.41;;;13.90;60.60
61026;BME280;46911;32.650;-16.902;2023-02-16T01:42:46;101971.81;;;13.99;60.95
61026;BME280;46911;32.650;-16.902;2023-02-16T01:45:08;101945.47;;;13.77;61.97
61026;BME280;46911;32.650;-16.902;2023-02-16T01:49:31;101973.63;;;13.70;62.70
61026;BME280;46911;32.650;-16.902;2023-02-16T01:51:36;101964.53;;;13.72;63.08
61026;BME280;46911;32.650;-16.902;2023-02-16T01:53:49;101962.97;;;13.54;63.68
61026;BME280;46911;32.650;-16.902;2023-02-16T01:55:56;101942.94;;;13.45;64.82
61026;BME280;46911;32.650;-16.902;2023-02-16T02:02:57;101952.94;;;13.58;66.06
61026;BME280;46911;32.650;-16.902;2023-02-16T02:05:27;101952.84;;;13.59;66.96
61026;BME280;46911;32.650;-16.902;2023-02-16T02:12:36;101950.88;;;13.47;66.27
61026;BME280;46911;32.650;-16.902;2023-02-16T02:14:43;101935.38;;;13.52;64.13
61026;BME280;46911;32.650;-16.902;2023-02-16T02:16:53;101949.09;;;13.62;61.43
61026;BME280;46911;32.650;-16.902;2023-02-16T02:19:04;101928.13;;;13.54;61.58
61026;BME280;46911;32.650;-16.902;2023-02-16T02:31:53;101951.59;;;13.34;65.20
61026;BME280;46911;32.650;-16.902;2023-02-16T02:34:16;101933.34;;;13.11;66.11
61026;BME280;46911;32.650;-16.902;2023-02-16T02:43:55;101946.41;;;13.31;63.62
61026;BME280;46911;32.650;-16.902;2023-02-16T02:46:32;101953.41;;;13.34;63.97
61026;BME280;46911;32.650;-16.902;2023-02-16T02:48:37;101943.91;;;13.44;62.83
61026;BME280;46911;32.650;-16.902;2023-02-16T02:53:12;101918.81;;;13.45;62.71
61026;BME280;46911;32.650;-16.902;2023-02-16T02:55:15;101921.09;;;13.37;61.54
61026;BME280;46911;32.650;-16.902;2023-02-16T02:57:43;101920.63;;;13.45;60.27
61026;BME280;46911;32.650;-16.902;2023-02-16T03:00:15;101928.69;;;13.59;59.67
61026;BME280;46911;32.650;-16.902;2023-02-16T03:02:37;101898.34;;;13.44;60.47
61026;BME280;46911;32.650;-16.902;2023-02-16T03:04:40;101921.13;;;13.51;60.70
61026;BME280;46911;32.650;-16.902;2023-02-16T03:06:48;101842.44;;;13.07;61.40
61026;BME280;46911;32.650;-16.902;2023-02-16T03:09:00;101904.56;;;13.45;61.36
61026;BME280;46911;32.650;-16.902;2023-02-16T03:11:18;101900.59;;;13.36;61.67
61026;BME280;46911;32.650;-16.902;2023-02-16T03:13:42;101908.00;;;13.61;59.72
61026;BME280;46911;32.650;-16.902;2023-02-16T03:15:50;101881.09;;;13.63;59.32
61026;BME280;46911;32.650;-16.902;2023-02-16T03:17:59;101883.13;;;13.59;59.83
61026;BME280;46911;32.650;-16.902;2023-02-16T03:20:21;101894.22;;;13.67;60.45
61026;BME280;46911;32.650;-16.902;2023-02-16T03:22:40;101882.16;;;13.60;61.20
61026;BME280;46911;32.650;-16.902;2023-02-16T03:25:00;101913.94;;;13.66;61.81
61026;BME280;46911;32.650;-16.902;2023-02-16T03:27:24;101852.53;;;13.33;60.44
61026;BME280;46911;32.650;-16.902;2023-02-16T03:29:49;101876.31;;;13.39;60.53
61026;BME280;46911;32.650;-16.902;2023-02-16T03:31:54;101886.75;;;13.58;60.27
61026;BME280;46911;32.650;-16.902;2023-02-16T03:33:56;101886.66;;;13.60;60.96
61026;BME280;46911;32.650;-16.902;2023-02-16T03:36:01;101891.81;;;13.63;60.40
61026;BME280;46911;32.650;-16.902;2023-02-16T03:38:02;101897.13;;;13.64;59.43
61026;BME280;46911;32.650;-16.902;2023-02-16T03:40:06;101890.41;;;13.71;59.89
61026;BME280;46911;32.650;-16.902;2023-02-16T03:42:28;101864.53;;;13.56;61.92
61026;BME280;46911;32.650;-16.902;2023-02-16T03:44:32;101878.81;;;13.56;63.13
61026;BME280;46911;32.650;-16.902;2023-02-16T03:46:35;101866.25;;;13.57;64.39
61026;BME280;46911;32.650;-16.902;2023-02-16T03:48:36;101855.72;;;13.39;65.45
61026;BME280;46911;32.650;-16.902;2023-02-16T03:50:41;101877.38;;;13.51;65.33
61026;BME280;46911;32.650;-16.902;2023-02-16T03:52:48;101876.59;;;13.49;66.21
61026;BME280;46911;32.650;-16.902;2023-02-16T03:54:48;101848.63;;;13.38;66.54
61026;BME280;46911;32.650;-16.902;2023-02-16T03:56:54;101861.28;;;13.36;67.72
61026;BME280;46911;32.650;-16.902;2023-02-16T03:58:55;101855.13;;;13.34;68.63
61026;BME280;46911;32.650;-16.902;2023-02-16T04:00:56;101862.03;;;13.38;68.95
61026;BME280;46911;32.650;-16.902;2023-02-16T04:02:58;101860.13;;;13.41;69.29
61026;BME280;46911;32.650;-16.902;2023-02-16T04:05:02;101847.31;;;13.46;68.27
61026;BME280;46911;32.650;-16.902;2023-02-16T04:07:05;101829.38;;;13.32;68.05
61026;BME280;46911;32.650;-16.902;2023-02-16T04:09:06;101831.00;;;13.34;68.39
61026;BME280;46911;32.650;-16.902;2023-02-16T04:11:07;101861.88;;;13.42;68.27
61026;BME280;46911;32.650;-16.902;2023-02-16T04:13:26;101861.94;;;13.40;67.89
61026;BME280;46911;32.650;-16.902;2023-02-16T04:15:30;101853.59;;;13.30;67.45
61026;BME280;46911;32.650;-16.902;2023-02-16T04:17:33;101840.38;;;13.27;65.71
61026;BME280;46911;32.650;-16.902;2023-02-16T04:19:34;101841.81;;;13.33;64.01
61026;BME280;46911;32.650;-16.902;2023-02-16T04:21:35;101869.41;;;13.49;63.60
61026;BME280;46911;32.650;-16.902;2023-02-16T04:23:36;101852.78;;;13.44;62.59
61026;BME280;46911;32.650;-16.902;2023-02-16T04:25:42;101858.41;;;13.54;61.22
61026;BME280;46911;32.650;-16.902;2023-02-16T04:27:45;101852.66;;;13.60;60.55
61026;BME280;46911;32.650;-16.902;2023-02-16T04:29:49;101840.22;;;13.59;59.74
61026;BME280;46911;32.650;-16.902;2023-02-16T04:31:50;101828.09;;;13.39;60.20
61026;BME280;46911;32.650;-16.902;2023-02-16T04:33:51;101846.53;;;13.44;60.50
61026;BME280;46911;32.650;-16.902;2023-02-16T04:35:51;101845.69;;;13.43;60.49
61026;BME280;46911;32.650;-16.902;2023-02-16T04:37:55;101833.38;;;13.25;60.88
61026;BME280;46911;32.650;-16.902;2023-02-16T04:39:56;101838.28;;;13.32;57.74
61026;BME280;46911;32.650;-16.902;2023-02-16T04:42:00;101845.78;;;13.42;57.80
61026;BME280;46911;32.650;-16.902;2023-02-16T04:44:04;101828.03;;;13.25;58.96
61026;BME280;46911;32.650;-16.902;2023-02-16T04:46:08;101817.41;;;13.23;58.63
61026;BME280;46911;32.650;-16.902;2023-02-16T04:48:11;101855.47;;;13.44;58.77
61026;BME280;46911;32.650;-16.902;2023-02-16T04:50:15;101875.19;;;13.58;59.00
61026;BME280;46911;32.650;-16.902;2023-02-16T04:52:15;101854.97;;;13.66;58.93
61026;BME280;46911;32.650;-16.902;2023-02-16T04:54:19;101854.75;;;13.69;59.37
61026;BME280;46911;32.650;-16.902;2023-02-16T04:56:25;101865.31;;;13.72;58.49
61026;BME280;46911;32.650;-16.902;2023-02-16T04:58:28;101854.38;;;13.61;58.70
61026;BME280;46911;32.650;-16.902;2023-02-16T05:00:34;101865.31;;;13.72;59.28
61026;BME280;46911;32.650;-16.902;2023-02-16T05:02:35;101866.25;;;13.71;59.20
61026;BME280;46911;32.650;-16.902;2023-02-16T05:04:41;101873.34;;;13.72;59.43
61026;BME280;46911;32.650;-16.902;2023-02-16T05:06:44;101880.34;;;13.75;59.29
61026;BME280;46911;32.650;-16.902;2023-02-16T05:08:48;101891.66;;;13.66;59.86
61026;BME280;46911;32.650;-16.902;2023-02-16T05:10:52;101893.44;;;13.65;60.29
61026;BME280;46911;32.650;-16.902;2023-02-16T05:13:14;101906.38;;;13.59;60.72
61026;BME280;46911;32.650;-16.902;2023-02-16T05:15:35;101899.78;;;13.64;59.77
61026;BME280;46911;32.650;-16.902;2023-02-16T05:17:35;101895.88;;;13.70;59.73
61026;BME280;46911;32.650;-16.902;2023-02-16T05:19:36;101906.59;;;13.70;59.91
61026;BME280;46911;32.650;-16.902;2023-02-16T05:21:37;101889.25;;;13.76;60.08
61026;BME280;46911;32.650;-16.902;2023-02-16T05:23:38;101875.66;;;13.64;60.35
61026;BME280;46911;32.650;-16.902;2023-02-16T05:25:39;101908.38;;;13.69;60.90
61026;BME280;46911;32.650;-16.902;2023-02-16T05:27:40;101884.44;;;13.52;61.16
61026;BME280;46911;32.650;-16.902;2023-02-16T05:29:45;101914.81;;;13.52;61.57
61026;BME280;46911;32.650;-16.902;2023-02-16T05:31:49;101914.22;;;13.47;62.51
61026;BME280;46911;32.650;-16.902;2023-02-16T05:33:50;101919.59;;;13.47;62.57
61026;BME280;46911;32.650;-16.902;2023-02-16T05:35:51;101895.50;;;13.31;63.00
61026;BME280;46911;32.650;-16.902;2023-02-16T05:37:52;101921.41;;;13.31;63.27
61026;BME280;46911;32.650;-16.902;2023-02-16T05:39:53;101910.91;;;13.28;63.28
61026;BME280;46911;32.650;-16.902;2023-02-16T05:41:54;101926.13;;;13.27;62.76
61026;BME280;46911;32.650;-16.902;2023-02-16T05:43:57;101924.75;;;13.20;62.92
61026;BME280;46911;32.650;-16.902;2023-02-16T05:45:58;101937.00;;;13.10;63.35
61026;BME280;46911;32.650;-16.902;2023-02-16T05:48:02;101934.47;;;13.06;62.59
61026;BME280;46911;32.650;-16.902;2023-02-16T05:50:03;101937.16;;;13.06;63.20
61026;BME280;46911;32.650;-16.902;2023-02-16T05:52:04;101934.41;;;13.08;62.91
61026;BME280;46911;32.650;-16.902;2023-02-16T05:54:07;101924.63;;;13.07;63.28
61026;BME280;46911;32.650;-16.902;2023-02-16T05:56:10;101932.69;;;13.07;63.28
61026;BME280;46911;32.650;-16.902;2023-02-16T05:58:13;101924.63;;;13.07;63.03
61026;BME280;46911;32.650;-16.902;2023-02-16T06:00:17;101935.59;;;13.02;63.13
61026;BME280;46911;32.650;-16.902;2023-02-16T06:02:21;101905.53;;;12.97;62.76
61026;BME280;46911;32.650;-16.902;2023-02-16T06:04:22;101901.22;;;12.95;63.09
61026;BME280;46911;32.650;-16.902;2023-02-16T06:06:26;101912.03;;;12.93;63.43
61026;BME280;46911;32.650;-16.902;2023-02-16T06:08:32;101918.78;;;13.00;63.51
61026;BME280;46911;32.650;-16.902;2023-02-16T06:10:38;101936.50;;;13.03;63.59
61026;BME280;46911;32.650;-16.902;2023-02-16T06:12:41;101917.16;;;12.98;63.68
61026;BME280;46911;32.650;-16.902;2023-02-16T06:14:44;101943.66;;;13.33;62.98
61026;BME280;46911;32.650;-16.902;2023-02-16T06:16:49;101910.69;;;13.16;63.57
61026;BME280;46911;32.650;-16.902;2023-02-16T06:18:51;101957.66;;;13.38;63.80
61026;BME280;46911;32.650;-16.902;2023-02-16T06:20:58;101955.69;;;13.42;64.17
61026;BME280;46911;32.650;-16.902;2023-02-16T06:22:59;101938.72;;;13.41;64.16
61026;BME280;46911;32.650;-16.902;2023-02-16T06:25:02;101929.66;;;13.28;63.91
61026;BME280;46911;32.650;-16.902;2023-02-16T06:27:05;101959.81;;;13.31;64.51
61026;BME280;46911;32.650;-16.902;2023-02-16T06:29:10;101950.91;;;13.31;64.72
61026;BME280;46911;32.650;-16.902;2023-02-16T06:31:11;101965.00;;;13.34;65.51
61026;BME280;46911;32.650;-16.902;2023-02-16T06:33:12;101958.09;;;13.30;65.82
61026;BME280;46911;32.650;-16.902;2023-02-16T06:35:13;101939.38;;;13.14;66.22
61026;BME280;46911;32.650;-16.902;2023-02-16T06:37:17;101945.88;;;13.10;66.30
61026;BME280;46911;32.650;-16.902;2023-02-16T06:39:18;101961.69;;;13.15;66.93
61026;BME280;46911;32.650;-16.902;2023-02-16T06:41:24;101960.00;;;12.98;66.97
61026;BME280;46911;32.650;-16.902;2023-02-16T06:43:31;101959.66;;;12.88;67.69
61026;BME280;46911;32.650;-16.902;2023-02-16T06:45:32;101944.31;;;12.60;67.91
61026;BME280;46911;32.650;-16.902;2023-02-16T06:47:38;101928.44;;;12.56;68.87
61026;BME280;46911;32.650;-16.902;2023-02-16T06:49:39;101949.56;;;12.61;68.91
61026;BME280;46911;32.650;-16.902;2023-02-16T06:51:40;101961.16;;;12.62;69.07
61026;BME280;46911;32.650;-16.902;2023-02-16T06:53:43;101939.66;;;12.47;69.14
61026;BME280;46911;32.650;-16.902;2023-02-16T06:55:45;101965.63;;;12.61;69.64
61026;BME280;46911;32.650;-16.902;2023-02-16T06:57:46;101957.78;;;12.58;69.33
61026;BME280;46911;32.650;-16.902;2023-02-16T06:59:51;101949.34;;;12.50;69.57
61026;BME280;46911;32.650;-16.902;2023-02-16T07:01:55;101933.09;;;12.53;68.98
61026;BME280;46911;32.650;-16.902;2023-02-16T07:04:01;101954.06;;;12.61;68.76
61026;BME280;46911;32.650;-16.902;2023-02-16T07:06:02;101933.44;;;12.63;68.13
61026;BME280;46911;32.650;-16.902;2023-02-16T07:08:05;101969.59;;;12.86;67.89
61026;BME280;46911;32.650;-16.902;2023-02-16T07:10:06;101975.56;;;12.91;67.79
61026;BME280;46911;32.650;-16.902;2023-02-16T07:12:07;101963.13;;;12.90;67.73
61026;BME280;46911;32.650;-16.902;2023-02-16T07:14:11;101932.22;;;12.84;67.47
61026;BME280;46911;32.650;-16.902;2023-02-16T07:16:15;101943.47;;;13.05;67.55
61026;BME280;46911;32.650;-16.902;2023-02-16T07:18:16;101938.13;;;13.05;67.31
61026;BME280;46911;32.650;-16.902;2023-02-16T07:20:16;101956.59;;;13.10;67.10
61026;BME280;46911;32.650;-16.902;2023-02-16T07:22:24;101966.44;;;13.10;67.25
61026;BME280;46911;32.650;-16.902;2023-02-16T07:24:27;101980.19;;;13.03;67.21
61026;BME280;46911;32.650;-16.902;2023-02-16T07:26:28;101989.38;;;12.99;67.50
61026;BME280;46911;32.650;-16.902;2023-02-16T07:28:29;101989.91;;;12.90;68.05
61026;BME280;46911;32.650;-16.902;2023-02-16T07:30:33;101970.94;;;12.63;68.36
61026;BME280;46911;32.650;-16.902;2023-02-16T07:32:37;101968.31;;;12.77;68.88
61026;BME280;46911;32.650;-16.902;2023-02-16T07:34:38;102007.09;;;12.86;69.04
61026;BME280;46911;32.650;-16.902;2023-02-16T07:36:41;102008.47;;;12.77;69.35
61026;BME280;46911;32.650;-16.902;2023-02-16T07:38:44;102012.88;;;12.94;68.92
61026;BME280;46911;32.650;-16.902;2023-02-16T07:40:47;102005.50;;;13.14;68.19
61026;BME280;46911;32.650;-16.902;2023-02-16T07:42:48;102003.03;;;13.25;67.99
61026;BME280;46911;32.650;-16.902;2023-02-16T07:44:51;102007.63;;;13.39;67.75
61026;BME280;46911;32.650;-16.902;2023-02-16T07:46:52;101987.25;;;13.36;67.83
61026;BME280;46911;32.650;-16.902;2023-02-16T07:48:52;102005.72;;;13.41;68.02
61026;BME280;46911;32.650;-16.902;2023-02-16T07:50:53;102012.91;;;13.41;68.18
61026;BME280;46911;32.650;-16.902;2023-02-16T07:52:56;102009.09;;;13.29;68.05
61026;BME280;46911;32.650;-16.902;2023-02-16T07:55:00;102014.28;;;13.16;67.94
61026;BME280;46911;32.650;-16.902;2023-02-16T07:57:01;102027.69;;;13.16;68.15
61026;BME280;46911;32.650;-16.902;2023-02-16T07:59:02;102022.53;;;13.13;68.37
61026;BME280;46911;32.650;-16.902;2023-02-16T08:01:09;102003.25;;;13.06;68.77
61026;BME280;46911;32.650;-16.902;2023-02-16T08:03:10;102018.72;;;13.17;68.57
61026;BME280;46911;32.650;-16.902;2023-02-16T08:05:11;102031.03;;;13.35;68.42
61026;BME280;46911;32.650;-16.902;2023-02-16T08:07:16;102022.22;;;13.33;68.43
61026;BME280;46911;32.650;-16.902;2023-02-16T08:09:17;102026.63;;;13.34;68.18
61026;BME280;46911;32.650;-16.902;2023-02-16T08:11:21;102029.41;;;13.33;68.11
61026;BME280;46911;32.650;-16.902;2023-02-16T08:13:22;102024.75;;;13.36;67.95
61026;BME280;46911;32.650;-16.902;2023-02-16T08:15:23;101998.47;;;13.27;68.04
61026;BME280;46911;32.650;-16.902;2023-02-16T08:17:24;102026.63;;;13.34;67.81
61026;BME280;46911;32.650;-16.902;2023-02-16T08:19:27;101996.03;;;13.22;68.00
61026;BME280;46911;32.650;-16.902;2023-02-16T08:21:33;102018.09;;;13.28;67.82
61026;BME280;46911;32.650;-16.902;2023-02-16T08:23:34;102039.31;;;13.47;67.62
61026;BME280;46911;32.650;-16.902;2023-02-16T08:25:38;102053.31;;;13.52;67.72
61026;BME280;46911;32.650;-16.902;2023-02-16T08:27:41;102057.59;;;13.40;67.58
61026;BME280;46911;32.650;-16.902;2023-02-16T08:29:42;102052.63;;;13.64;65.60
61026;BME280;46911;32.650;-16.902;2023-02-16T08:31:48;102037.63;;;13.60;65.46
61026;BME280;46911;32.650;-16.902;2023-02-16T08:33:53;102064.09;;;13.66;65.70
61026;BME280;46911;32.650;-16.902;2023-02-16T08:35:54;102069.31;;;13.84;65.47
61026;BME280;46911;32.650;-16.902;2023-02-16T08:37:55;102039.63;;;14.01;63.10
61026;BME280;46911;32.650;-16.902;2023-02-16T08:39:56;102068.88;;;14.35;62.32
61026;BME280;46911;32.650;-16.902;2023-02-16T08:42:00;102073.41;;;14.34;62.53
61026;BME280;46911;32.650;-16.902;2023-02-16T08:44:02;102047.91;;;14.27;62.61
61026;BME280;46911;32.650;-16.902;2023-02-16T08:46:08;102070.16;;;14.44;61.67
61026;BME280;46911;32.650;-16.902;2023-02-16T08:48:10;102055.00;;;14.43;61.42
61026;BME280;46911;32.650;-16.902;2023-02-16T08:50:11;102066.31;;;14.48;60.96
61026;BME280;46911;32.650;-16.902;2023-02-16T08:52:12;102069.78;;;14.50;61.48
61026;BME280;46911;32.650;-16.902;2023-02-16T08:54:19;102090.84;;;14.56;61.66
61026;BME280;46911;32.650;-16.902;2023-02-16T08:56:20;102065.16;;;14.52;61.73
61026;BME280;46911;32.650;-16.902;2023-02-16T08:58:24;102082.81;;;14.70;61.83
61026;BME280;46911;32.650;-16.902;2023-02-16T09:00:28;102058.44;;;14.59;61.80
61026;BME280;46911;32.650;-16.902;2023-02-16T09:02:38;102064.88;;;14.56;62.05
61026;BME280;46911;32.650;-16.902;2023-02-16T09:04:38;102065.16;;;14.52;61.98
61026;BME280;46911;32.650;-16.902;2023-02-16T09:06:42;102081.38;;;14.65;61.64
61026;BME280;46911;32.650;-16.902;2023-02-16T09:08:43;102083.13;;;14.66;62.19
61026;BME280;46911;32.650;-16.902;2023-02-16T09:10:46;102084.56;;;14.71;61.85
61026;BME280;46911;32.650;-16.902;2023-02-16T09:12:47;102091.31;;;14.63;61.38
61026;BME280;46911;32.650;-16.902;2023-02-16T09:14:49;102098.25;;;14.67;62.11
61026;BME280;46911;32.650;-16.902;2023-02-16T09:16:51;102087.34;;;14.70;62.55
61026;BME280;46911;32.650;-16.902;2023-02-16T09:18:52;102097.19;;;14.84;61.34
61026;BME280;46911;32.650;-16.902;2023-02-16T09:20:53;102104.88;;;14.90;60.30
61026;BME280;46911;32.650;-16.902;2023-02-16T09:22:54;102097.84;;;15.02;59.62
61026;BME280;46911;32.650;-16.902;2023-02-16T09:24:55;102074.78;;;14.98;59.27
61026;BME280;46911;32.650;-16.902;2023-02-16T09:26:56;102105.06;;;15.29;59.32
61026;BME280;46911;32.650;-16.902;2023-02-16T09:28:59;102085.56;;;15.25;58.24
61026;BME280;46911;32.650;-16.902;2023-02-16T09:31:11;102094.78;;;15.48;57.79
61026;BME280;46911;32.650;-16.902;2023-02-16T09:33:12;102084.75;;;15.65;56.40
61026;BME280;46911;32.650;-16.902;2023-02-16T09:35:15;102072.06;;;15.80;56.70
61026;BME280;46911;32.650;-16.902;2023-02-16T09:37:16;102094.06;;;15.99;55.69
61026;BME280;46911;32.650;-16.902;2023-02-16T09:39:17;102097.56;;;16.14;55.14
61026;BME280;46911;32.650;-16.902;2023-02-16T09:41:41;102086.00;;;16.12;54.15
61026;BME280;46911;32.650;-16.902;2023-02-16T09:43:58;102075.03;;;16.41;53.19
61026;BME280;46911;32.650;-16.902;2023-02-16T09:46:04;102098.16;;;16.69;51.05
61026;BME280;46911;32.650;-16.902;2023-02-16T09:48:23;102104.81;;;16.77;51.62
61026;BME280;46911;32.650;-16.902;2023-02-16T09:50:35;102085.50;;;16.83;50.75
61026;BME280;46911;32.650;-16.902;2023-02-16T09:52:46;102073.72;;;17.10;51.00
61026;BME280;46911;32.650;-16.902;2023-02-16T09:54:54;102086.63;;;18.01;49.77
61026;BME280;46911;32.650;-16.902;2023-02-16T09:57:04;102091.13;;;19.26;46.61
61026;BME280;46911;32.650;-16.902;2023-02-16T10:02:32;102086.50;;;22.60;41.61
61026;BME280;46911;32.650;-16.902;2023-02-16T10:04:44;102085.47;;;23.89;37.31
61026;BME280;46911;32.650;-16.902;2023-02-16T10:09:07;102072.69;;;25.44;32.97
61026;BME280;46911;32.650;-16.902;2023-02-16T10:13:47;102064.28;;;27.22;31.61
61026;BME280;46911;32.650;-16.902;2023-02-16T10:15:56;102071.94;;;28.12;28.48
61026;BME280;46911;32.650;-16.902;2023-02-16T10:18:17;102070.22;;;27.72;28.61
61026;BME280;46911;32.650;-16.902;2023-02-16T10:22:37;102086.50;;;28.12;28.95
61026;BME280;46911;32.650;-16.902;2023-02-16T10:25:07;102077.81;;;28.53;26.98
61026;BME280;46911;32.650;-16.902;2023-02-16T10:27:14;102075.91;;;28.84;27.55
61026;BME280;46911;32.650;-16.902;2023-02-16T10:29:20;102059.13;;;29.37;26.41
61026;BME280;46911;32.650;-16.902;2023-02-16T10:35:48;102068.38;;;29.51;26.12
61026;BME280;46911;32.650;-16.902;2023-02-16T10:37:57;102063.22;;;30.26;25.79
61026;BME280;46911;32.650;-16.902;2023-02-16T10:42:47;102064.09;;;31.64;23.43
61026;BME280;46911;32.650;-16.902;2023-02-16T10:45:21;102061.41;;;30.95;24.08
61026;BME280;46911;32.650;-16.902;2023-02-16T10:49:34;102064.03;;;29.63;25.69
61026;BME280;46911;32.650;-16.902;2023-02-16T10:51:37;102057.59;;;30.06;25.24
61026;BME280;46911;32.650;-16.902;2023-02-16T10:53:44;102068.75;;;29.98;26.06
61026;BME280;46911;32.650;-16.902;2023-02-16T10:55:48;102082.81;;;30.10;25.22
61026;BME280;46911;32.650;-16.902;2023-02-16T10:57:53;102061.19;;;29.28;26.20
61026;BME280;46911;32.650;-16.902;2023-02-16T11:00:07;102060.41;;;29.19;26.47
61026;BME280;46911;32.650;-16.902;2023-02-16T11:04:39;102074.69;;;29.08;26.86
61026;BME280;46911;32.650;-16.902;2023-02-16T11:06:41;102076.03;;;30.05;26.98
61026;BME280;46911;32.650;-16.902;2023-02-16T11:08:49;102072.09;;;30.57;26.43
61026;BME280;46911;32.650;-16.902;2023-02-16T11:10:52;102053.78;;;30.97;24.54
61026;BME280;46911;32.650;-16.902;2023-02-16T11:12:56;102067.25;;;31.47;24.09
61026;BME280;46911;32.650;-16.902;2023-02-16T11:17:10;102056.88;;;30.67;24.35
61026;BME280;46911;32.650;-16.902;2023-02-16T11:19:21;102080.47;;;29.56;26.05
61026;BME280;46911;32.650;-16.902;2023-02-16T11:21:52;102069.25;;;29.58;26.73
61026;BME280;46911;32.650;-16.902;2023-02-16T11:23:58;102079.66;;;29.34;27.21
61026;BME280;46911;32.650;-16.902;2023-02-16T11:28:25;102067.75;;;30.41;25.38
61026;BME280;46911;32.650;-16.902;2023-02-16T11:30:36;102078.72;;;30.34;25.89
61026;BME280;46911;32.650;-16.902;2023-02-16T11:32:41;102084.44;;;30.32;26.38
61026;BME280;46911;32.650;-16.902;2023-02-16T11:34:45;102063.41;;;29.89;26.43
61026;BME280;46911;32.650;-16.902;2023-02-16T11:36:49;102058.16;;;29.95;26.76
61026;BME280;46911;32.650;-16.902;2023-02-16T11:41:04;102072.34;;;31.44;25.07
61026;BME280;46911;32.650;-16.902;2023-02-16T11:43:13;102076.59;;;31.93;25.25
61026;BME280;46911;32.650;-16.902;2023-02-16T11:47:34;102071.16;;;30.08;26.42